Time,TemperatureF,DewpointF,PressureIn,WindDirection,WindDirectionDegrees,WindSpeedMPH,WindSpeedGustMPH,Humidity,HourlyPrecipIn,Conditions,Clouds,dailyrainin,SolarRadiationWatts/m^2,SoftwareType,DateUTC
2013-03-13 00:03:00,33.0,25.0,-100.00,SE,134,1.0,4.0,73,0.00,,,0.20,0.000000,,2013-03-13 04:03:00,
2013-03-13 00:11:00,31.0,26.0,-100.00,ENE,75,1.0,7.0,81,0.00,,,0.18,0.000000,,2013-03-13 04:11:00,
2013-03-13 00:32:00,31.0,26.0,-100.00,ENE,75,1.0,7.0,81,0.00,,,0.18,0.000000,,2013-03-13 04:32:00,
2013-03-13 00:43:00,31.0,26.0,-100.00,ENE,75,1.0,7.0,81,0.00,,,0.18,0.000000,,2013-03-13 04:43:00,
2013-03-13 00:53:00,31.0,26.0,-100.00,ENE,75,1.0,7.0,81,0.00,,,0.18,0.000000,,2013-03-13 04:53:00,
2013-03-13 01:03:00,31.0,26.0,-100.00,ENE,75,1.0,7.0,81,0.00,,,0.18,0.000000,,2013-03-13 05:03:00,
2013-03-13 01:11:00,35.0,26.0,-100.00,ENE,73,4.0,12.0,69,0.00,,,0.15,0.000000,,2013-03-13 05:11:00,
2013-03-13 01:33:00,35.0,26.0,-100.00,ENE,73,4.0,12.0,69,0.00,,,0.15,0.000000,,2013-03-13 05:33:00,
2013-03-13 01:42:00,35.0,26.0,-100.00,ENE,73,4.0,12.0,69,0.00,,,0.15,0.000000,,2013-03-13 05:42:00,
2013-03-13 01:53:00,35.0,26.0,-100.00,ENE,73,4.0,12.0,69,0.00,,,0.15,0.000000,,2013-03-13 05:53:00,
2013-03-13 02:02:00,35.0,26.0,-100.00,ENE,73,4.0,12.0,69,0.00,,,0.15,0.000000,,2013-03-13 06:02:00,
2013-03-13 02:11:00,35.0,23.0,-100.00,ENE,71,4.0,12.0,60,0.00,,,0.10,0.000000,,2013-03-13 06:11:00,
2013-03-13 02:33:00,35.0,23.0,-100.00,ENE,71,4.0,12.0,60,0.00,,,0.10,0.000000,,2013-03-13 06:33:00,
2013-03-13 02:43:00,35.0,23.0,-100.00,ENE,71,4.0,12.0,60,0.00,,,0.10,0.000000,,2013-03-13 06:43:00,
2013-03-13 02:53:00,35.0,23.0,-100.00,ENE,71,4.0,12.0,60,0.00,,,0.10,0.000000,,2013-03-13 06:53:00,
2013-03-13 03:03:00,35.0,23.0,-100.00,ENE,71,4.0,12.0,60,0.00,,,0.10,0.000000,,2013-03-13 07:03:00,
2013-03-13 03:11:00,34.0,18.0,-100.00,ENE,70,5.0,13.0,52,0.00,,,0.08,0.000000,,2013-03-13 07:11:00,
2013-03-13 03:43:00,34.0,18.0,-100.00,ENE,70,5.0,13.0,52,0.00,,,0.08,0.000000,,2013-03-13 07:43:00,
2013-03-13 03:53:00,34.0,18.0,-100.00,ENE,70,5.0,13.0,52,0.00,,,0.08,0.000000,,2013-03-13 07:53:00,
2013-03-13 04:03:00,34.0,18.0,-100.00,ENE,70,5.0,13.0,52,0.00,,,0.08,0.000000,,2013-03-13 08:03:00,
2013-03-13 04:11:00,32.0,17.0,-100.00,ENE,74,3.0,9.0,54,0.00,,,0.06,0.000000,,2013-03-13 08:11:00,
2013-03-13 04:43:00,32.0,17.0,-100.00,ENE,74,3.0,9.0,54,0.00,,,0.06,0.000000,,2013-03-13 08:43:00,
2013-03-13 04:54:00,32.0,17.0,-100.00,ENE,74,3.0,9.0,54,0.00,,,0.06,0.000000,,2013-03-13 08:54:00,
2013-03-13 05:02:00,32.0,17.0,-100.00,ENE,74,3.0,9.0,54,0.00,,,0.06,0.000000,,2013-03-13 09:02:00,
2013-03-13 05:11:00,30.0,18.0,-100.00,North,355,2.0,7.0,60,0.00,,,0.02,0.000000,,2013-03-13 09:11:00,
2013-03-13 05:32:00,30.0,18.0,-100.00,North,355,2.0,7.0,60,0.00,,,0.02,0.000000,,2013-03-13 09:32:00,
2013-03-13 05:42:00,30.0,18.0,-100.00,North,355,2.0,7.0,60,0.00,,,0.02,0.000000,,2013-03-13 09:42:00,
2013-03-13 05:52:00,30.0,18.0,-100.00,North,355,2.0,7.0,60,0.00,,,0.02,0.000000,,2013-03-13 09:52:00,
2013-03-13 06:02:00,30.0,18.0,-100.00,North,355,2.0,7.0,60,0.00,,,0.02,0.000000,,2013-03-13 10:02:00,
2013-03-13 06:11:00,30.0,20.0,-100.00,NNW,348,2.0,6.0,66,0.00,,,0.00,0.000000,,2013-03-13 10:11:00,
2013-03-13 06:32:00,30.0,20.0,-100.00,NNW,348,2.0,6.0,66,0.00,,,0.00,0.000000,,2013-03-13 10:32:00,
2013-03-13 06:42:00,30.0,20.0,-100.00,NNW,348,2.0,6.0,66,0.00,,,0.00,0.000000,,2013-03-13 10:42:00,
2013-03-13 06:52:00,30.0,20.0,-100.00,NNW,348,2.0,6.0,66,0.00,,,0.00,0.000000,,2013-03-13 10:52:00,
2013-03-13 07:02:00,30.0,20.0,-100.00,NNW,348,2.0,6.0,66,0.00,,,0.00,0.000000,,2013-03-13 11:02:00,
2013-03-13 07:11:00,30.0,22.0,-100.00,East,87,4.0,10.0,71,0.00,,,0.00,0.000000,,2013-03-13 11:11:00,
2013-03-13 07:32:00,30.0,22.0,-100.00,East,87,4.0,10.0,71,0.00,,,0.00,0.000000,,2013-03-13 11:32:00,
2013-03-13 07:42:00,30.0,22.0,-100.00,East,87,4.0,10.0,71,0.00,,,0.00,0.000000,,2013-03-13 11:42:00,
2013-03-13 07:53:00,30.0,22.0,-100.00,East,87,4.0,10.0,71,0.00,,,0.00,0.000000,,2013-03-13 11:53:00,
2013-03-13 08:02:00,30.0,22.0,-100.00,East,87,4.0,10.0,71,0.00,,,0.00,0.000000,,2013-03-13 12:02:00,
2013-03-13 08:11:00,30.0,26.0,-100.00,ENE,59,2.0,8.0,85,0.00,,,0.00,3.000000,,2013-03-13 12:11:00,
2013-03-13 08:32:00,30.0,26.0,-100.00,ENE,59,2.0,8.0,85,0.00,,,0.00,3.000000,,2013-03-13 12:32:00,
2013-03-13 08:42:00,30.0,26.0,-100.00,ENE,59,2.0,8.0,85,0.00,,,0.00,3.000000,,2013-03-13 12:42:00,
2013-03-13 08:53:00,30.0,26.0,-100.00,ENE,59,2.0,8.0,85,0.00,,,0.00,3.000000,,2013-03-13 12:53:00,
2013-03-13 09:02:00,30.0,26.0,-100.00,ENE,59,2.0,8.0,85,0.00,,,0.00,3.000000,,2013-03-13 13:02:00,
2013-03-13 09:11:00,31.0,27.0,-100.00,East,94,3.0,9.0,86,0.00,,,0.00,42.000000,,2013-03-13 13:11:00,
2013-03-13 09:33:00,31.0,27.0,-100.00,East,94,3.0,9.0,86,0.00,,,0.00,42.000000,,2013-03-13 13:33:00,
2013-03-13 09:43:00,31.0,27.0,-100.00,East,94,3.0,9.0,86,0.00,,,0.00,42.000000,,2013-03-13 13:43:00,
2013-03-13 09:53:00,31.0,27.0,-100.00,East,94,3.0,9.0,86,0.00,,,0.00,42.000000,,2013-03-13 13:53:00,
2013-03-13 10:03:00,31.0,27.0,-100.00,East,94,3.0,9.0,86,0.00,,,0.00,42.000000,,2013-03-13 14:03:00,
2013-03-13 10:11:00,31.0,27.0,-100.00,ENE,73,4.0,9.0,86,0.00,,,0.00,72.000000,,2013-03-13 14:11:00,
2013-03-13 10:34:00,31.0,27.0,-100.00,ENE,73,4.0,9.0,86,0.00,,,0.00,72.000000,,2013-03-13 14:34:00,
2013-03-13 10:43:00,31.0,27.0,-100.00,ENE,73,4.0,9.0,86,0.00,,,0.00,72.000000,,2013-03-13 14:43:00,
2013-03-13 10:53:00,31.0,27.0,-100.00,ENE,73,4.0,9.0,86,0.00,,,0.00,72.000000,,2013-03-13 14:53:00,
2013-03-13 11:03:00,31.0,27.0,-100.00,ENE,73,4.0,9.0,86,0.00,,,0.00,72.000000,,2013-03-13 15:03:00,
2013-03-13 11:11:00,29.0,20.0,-100.00,East,97,5.0,16.0,68,0.02,,,0.02,349.000000,,2013-03-13 15:11:00,
2013-03-13 11:43:00,29.0,20.0,-100.00,East,97,5.0,16.0,68,0.02,,,0.02,349.000000,,2013-03-13 15:43:00,
2013-03-13 11:53:00,29.0,20.0,-100.00,East,97,5.0,16.0,68,0.02,,,0.02,349.000000,,2013-03-13 15:53:00,
2013-03-13 12:03:00,29.0,20.0,-100.00,East,97,5.0,16.0,68,0.02,,,0.02,349.000000,,2013-03-13 16:03:00,
2013-03-13 12:11:00,35.0,23.0,-100.00,ENE,72,7.0,19.0,62,0.01,,,0.03,598.000000,,2013-03-13 16:11:00,
2013-03-13 12:33:00,35.0,23.0,-100.00,ENE,72,7.0,19.0,62,0.01,,,0.03,598.000000,,2013-03-13 16:33:00,
2013-03-13 12:42:00,35.0,23.0,-100.00,ENE,72,7.0,19.0,62,0.01,,,0.03,598.000000,,2013-03-13 16:42:00,
2013-03-13 12:52:00,35.0,23.0,-100.00,ENE,72,7.0,19.0,62,0.01,,,0.03,598.000000,,2013-03-13 16:52:00,
2013-03-13 13:03:00,35.0,23.0,-100.00,ENE,72,7.0,19.0,62,0.01,,,0.03,598.000000,,2013-03-13 17:03:00,
2013-03-13 13:11:00,33.0,25.0,-100.00,ENE,72,7.0,14.0,73,0.00,,,0.03,385.000000,,2013-03-13 17:11:00,
2013-03-13 13:43:00,33.0,25.0,-100.00,ENE,72,7.0,14.0,73,0.00,,,0.03,385.000000,,2013-03-13 17:43:00,
2013-03-13 13:53:00,33.0,25.0,-100.00,ENE,72,7.0,14.0,73,0.00,,,0.03,385.000000,,2013-03-13 17:53:00,
2013-03-13 14:03:00,33.0,25.0,-100.00,ENE,72,7.0,14.0,73,0.00,,,0.03,385.000000,,2013-03-13 18:03:00,
2013-03-13 14:11:00,34.0,20.0,-100.00,East,83,8.0,17.0,57,0.00,,,0.03,800.000000,,2013-03-13 18:11:00,
2013-03-13 14:43:00,34.0,20.0,-100.00,East,83,8.0,17.0,57,0.00,,,0.03,800.000000,,2013-03-13 18:43:00,
2013-03-13 14:52:00,34.0,20.0,-100.00,East,83,8.0,17.0,57,0.00,,,0.03,800.000000,,2013-03-13 18:52:00,
2013-03-13 15:03:00,34.0,20.0,-100.00,East,83,8.0,17.0,57,0.00,,,0.03,800.000000,,2013-03-13 19:03:00,
2013-03-13 15:11:00,33.0,20.0,-100.00,East,94,6.0,19.0,58,0.00,,,0.03,502.000000,,2013-03-13 19:11:00,
2013-03-13 15:43:00,33.0,20.0,-100.00,East,94,6.0,19.0,58,0.00,,,0.03,502.000000,,2013-03-13 19:43:00,
2013-03-13 15:53:00,33.0,20.0,-100.00,East,94,6.0,19.0,58,0.00,,,0.03,502.000000,,2013-03-13 19:53:00,
2013-03-13 16:02:00,33.0,20.0,-100.00,East,94,6.0,19.0,58,0.00,,,0.03,502.000000,,2013-03-13 20:02:00,
2013-03-13 16:11:00,30.0,17.0,-100.00,East,98,6.0,14.0,58,0.00,,,0.03,433.000000,,2013-03-13 20:11:00,
2013-03-13 16:33:00,30.0,17.0,-100.00,East,98,6.0,14.0,58,0.00,,,0.03,433.000000,,2013-03-13 20:33:00,
2013-03-13 16:42:00,30.0,17.0,-100.00,East,98,6.0,14.0,58,0.00,,,0.03,433.000000,,2013-03-13 20:42:00,
2013-03-13 16:52:00,30.0,17.0,-100.00,East,98,6.0,14.0,58,0.00,,,0.03,433.000000,,2013-03-13 20:52:00,
2013-03-13 17:02:00,30.0,17.0,-100.00,East,98,6.0,14.0,58,0.00,,,0.03,433.000000,,2013-03-13 21:02:00,
2013-03-13 17:11:00,31.0,18.0,-100.00,East,85,7.0,16.0,58,0.00,,,0.03,345.000000,,2013-03-13 21:11:00,
2013-03-13 17:34:00,31.0,18.0,-100.00,East,85,7.0,16.0,58,0.00,,,0.03,345.000000,,2013-03-13 21:34:00,
2013-03-13 17:42:00,31.0,18.0,-100.00,East,85,7.0,16.0,58,0.00,,,0.03,345.000000,,2013-03-13 21:42:00,
2013-03-13 17:52:00,31.0,18.0,-100.00,East,85,7.0,16.0,58,0.00,,,0.03,345.000000,,2013-03-13 21:52:00,
2013-03-13 18:02:00,31.0,18.0,-100.00,East,85,7.0,16.0,58,0.00,,,0.03,345.000000,,2013-03-13 22:02:00,
2013-03-13 18:11:00,29.0,17.0,-100.00,East,88,6.0,16.0,60,0.00,,,0.03,187.000000,,2013-03-13 22:11:00,
2013-03-13 18:42:00,29.0,17.0,-100.00,East,88,6.0,16.0,60,0.00,,,0.03,187.000000,,2013-03-13 22:42:00,
2013-03-13 18:52:00,29.0,17.0,-100.00,East,88,6.0,16.0,60,0.00,,,0.03,187.000000,,2013-03-13 22:52:00,
2013-03-13 19:02:00,29.0,17.0,-100.00,East,88,6.0,16.0,60,0.00,,,0.03,187.000000,,2013-03-13 23:02:00,
2013-03-13 19:11:00,27.0,15.0,-100.00,ESE,104,6.0,14.0,59,0.00,,,0.03,57.000000,,2013-03-13 23:11:00,
2013-03-13 19:43:00,27.0,15.0,-100.00,ESE,104,6.0,14.0,59,0.00,,,0.03,57.000000,,2013-03-13 23:43:00,
2013-03-13 19:52:00,27.0,15.0,-100.00,ESE,104,6.0,14.0,59,0.00,,,0.03,57.000000,,2013-03-13 23:52:00,
2013-03-13 20:02:00,27.0,15.0,-100.00,ESE,104,6.0,14.0,59,0.00,,,0.03,57.000000,,2013-03-14 00:02:00,
2013-03-13 20:11:00,26.0,16.0,-100.00,East,96,5.0,13.0,64,0.00,,,0.03,4.000000,,2013-03-14 00:11:00,
2013-03-13 20:33:00,26.0,16.0,-100.00,East,96,5.0,13.0,64,0.00,,,0.03,4.000000,,2013-03-14 00:33:00,
2013-03-13 20:42:00,26.0,16.0,-100.00,East,96,5.0,13.0,64,0.00,,,0.03,4.000000,,2013-03-14 00:42:00,
2013-03-13 20:52:00,26.0,16.0,-100.00,East,96,5.0,13.0,64,0.00,,,0.03,4.000000,,2013-03-14 00:52:00,
2013-03-13 21:03:00,26.0,16.0,-100.00,East,96,5.0,13.0,64,0.00,,,0.03,4.000000,,2013-03-14 01:03:00,
2013-03-13 21:11:00,26.0,14.0,-100.00,East,91,5.0,13.0,61,0.00,,,0.03,0.000000,,2013-03-14 01:11:00,
2013-03-13 21:33:00,26.0,14.0,-100.00,East,91,5.0,13.0,61,0.00,,,0.03,0.000000,,2013-03-14 01:33:00,
2013-03-13 21:42:00,26.0,14.0,-100.00,East,91,5.0,13.0,61,0.00,,,0.03,0.000000,,2013-03-14 01:42:00,
2013-03-13 21:53:00,26.0,14.0,-100.00,East,91,5.0,13.0,61,0.00,,,0.03,0.000000,,2013-03-14 01:53:00,
2013-03-13 22:02:00,26.0,14.0,-100.00,East,91,5.0,13.0,61,0.00,,,0.03,0.000000,,2013-03-14 02:02:00,
2013-03-13 22:11:00,25.0,15.0,-100.00,East,81,5.0,11.0,64,0.00,,,0.03,0.000000,,2013-03-14 02:11:00,
2013-03-13 23:02:00,25.0,15.0,-100.00,East,81,5.0,11.0,64,0.00,,,0.03,0.000000,,2013-03-14 03:02:00,
2013-03-13 23:11:00,24.0,14.0,-100.00,East,88,5.0,13.0,66,0.00,,,0.03,0.000000,,2013-03-14 03:11:00,
2013-03-13 23:33:00,24.0,14.0,-100.00,East,88,5.0,13.0,66,0.00,,,0.03,0.000000,,2013-03-14 03:33:00,
2013-03-13 23:42:00,24.0,14.0,-100.00,East,88,5.0,13.0,66,0.00,,,0.03,0.000000,,2013-03-14 03:42:00,
2013-03-13 23:53:00,24.0,14.0,-100.00,East,88,5.0,13.0,66,0.00,,,0.03,0.000000,,2013-03-14 03:53:00,